Laval-Des-Rapides, Canada
Current Conditions -  °F | °C
As of 11:20 AM on Thursday 23 Oct 2014 (Local Time) from CYUL Reporting Station
Drizzle Drizzle  
Wind Chill: 38°   Ceiling: 1400
Heat Index: 46°   Visibility: 12mi
Dew Point: 39°   Wind: 23mph
Humidity: 76%   Direction: 30°NNE
Pressure: 30.06"   Gusts: 31mph
Location:  45.55°N, 73.7°W
Report Text: CYUL 231520Z 03020G27KT 12SM -DZ BKN014 OVC030 08/04 A3006 RMK SC6SC2 SLP181
Loading
Personal Weather Stations






























Interactive Weather Map
Tropical Storm Tracking
New forecast layout! Learn more

10-Day Weather Forecast

Advertisements
Track Severe Weather on mobile